createdAt,value
2023-05-05T00:02:14.308Z,97946.80
2023-05-05T00:06:04.616Z,97943.20
2023-05-05T00:09:39.002Z,97941.60
2023-05-05T00:13:28.050Z,97929.80
2023-05-05T00:17:09.352Z,97923.00
2023-05-05T00:20:58.529Z,97919.40
2023-05-05T00:24:41.682Z,97923.40
2023-05-05T00:28:02.553Z,97933.00
2023-05-05T00:31:41.823Z,97930.60
2023-05-05T00:35:05.918Z,97933.60
2023-05-05T00:38:35.029Z,97931.40
2023-05-05T00:42:03.476Z,97931.20
2023-05-05T00:45:41.836Z,97926.60
2023-05-05T00:49:24.969Z,97924.40
2023-05-05T00:53:14.243Z,97924.80
2023-05-05T00:56:53.489Z,97922.00
2023-05-05T01:00:30.198Z,97926.40
2023-05-05T01:03:44.996Z,97931.40
2023-05-05T01:07:27.626Z,97930.80
2023-05-05T01:11:20.830Z,97934.00
2023-05-05T01:15:12.080Z,97932.60
2023-05-05T01:19:13.016Z,97932.80
2023-05-05T01:22:54.963Z,97925.40
2023-05-05T01:26:29.154Z,97924.00
2023-05-05T01:30:28.927Z,97924.40
2023-05-05T01:34:17.995Z,97917.60
2023-05-05T01:38:13.125Z,97918.80
2023-05-05T01:42:04.744Z,97921.40
2023-05-05T01:45:35.909Z,97915.60
2023-05-05T01:49:17.666Z,97912.40
2023-05-05T01:52:58.275Z,97915.80
2023-05-05T01:56:48.701Z,97922.00
2023-05-05T02:00:38.099Z,97922.20
2023-05-05T02:04:27.521Z,97919.40
2023-05-05T02:08:09.157Z,97918.20
2023-05-05T02:11:58.475Z,97912.20
2023-05-05T02:15:48.026Z,97913.80
2023-05-05T02:19:08.756Z,97914.00
2023-05-05T02:22:57.967Z,97913.60
2023-05-05T02:26:47.221Z,97914.00
2023-05-05T02:30:36.608Z,97916.40
2023-05-05T02:34:06.598Z,97921.60
2023-05-05T02:37:36.622Z,97923.00
2023-05-05T02:41:25.826Z,97924.60
2023-05-05T02:45:15.019Z,97923.60
2023-05-05T02:49:04.188Z,97922.20
2023-05-05T02:52:53.451Z,97920.80
2023-05-05T02:56:36.335Z,97922.00
2023-05-05T03:00:31.324Z,97920.80
2023-05-05T03:04:26.109Z,97929.20
2023-05-05T03:08:15.358Z,97928.80
2023-05-05T03:12:04.616Z,97932.40
2023-05-05T03:15:52.999Z,97931.00
2023-05-05T03:19:42.065Z,97929.40
2023-05-05T03:23:24.860Z,97932.60
2023-05-05T03:27:06.791Z,97932.00
2023-05-05T03:30:55.854Z,97936.00
2023-05-05T03:34:44.968Z,97938.40
2023-05-05T03:39:21.253Z,97939.40
2023-05-05T03:42:43.935Z,97946.80
2023-05-05T03:46:32.965Z,97944.60
2023-05-05T03:50:22.071Z,97952.60
2023-05-05T03:54:11.163Z,97953.20
2023-05-05T03:57:55.159Z,97954.60
2023-05-05T04:01:36.970Z,97962.60
2023-05-05T04:05:26.235Z,97964.00
2023-05-05T04:09:07.028Z,97962.20
2023-05-05T04:12:56.154Z,97964.80
2023-05-05T04:16:38.779Z,97968.00
2023-05-05T04:20:27.877Z,97970.00
2023-05-05T04:24:06.371Z,97967.80
2023-05-05T04:27:48.167Z,97968.20
2023-05-05T04:31:36.335Z,97977.20
2023-05-05T04:35:27.731Z,97978.60
2023-05-05T04:39:16.877Z,97980.00
2023-05-05T04:42:57.465Z,97976.40
2023-05-05T04:46:32.891Z,97978.40
2023-05-05T04:50:22.180Z,97975.60
2023-05-05T04:54:12.092Z,97975.20
2023-05-05T04:57:32.414Z,97979.00
2023-05-05T05:01:05.677Z,97980.20
2023-05-05T05:04:54.871Z,97986.20
2023-05-05T05:08:44.208Z,97985.00
2023-05-05T05:12:32.487Z,97989.20
2023-05-05T05:16:04.857Z,97998.00
2023-05-05T05:20:14.954Z,98002.00
2023-05-05T05:24:06.772Z,98001.20
2023-05-05T05:31:56.083Z,98003.20
2023-05-05T05:35:47.505Z,98001.40
2023-05-05T05:39:31.373Z,98001.60
2023-05-05T05:43:00.515Z,98004.60
2023-05-05T05:46:30.044Z,98004.80
2023-05-05T05:49:42.677Z,98002.80
2023-05-05T05:53:23.578Z,98003.80
2023-05-05T05:57:17.380Z,98005.60
2023-05-05T06:01:06.834Z,98008.60
2023-05-05T06:04:38.586Z,98006.60
2023-05-05T06:08:10.731Z,98003.00
2023-05-05T06:11:42.553Z,97998.80
2023-05-05T06:14:44.750Z,98000.40
2023-05-05T06:18:24.419Z,98003.60
2023-05-05T06:21:59.967Z,98004.40
2023-05-05T06:25:29.376Z,98005.00
2023-05-05T06:28:39.757Z,98003.60
2023-05-05T06:32:09.546Z,98001.40
2023-05-05T06:35:34.765Z,97999.00
2023-05-05T06:39:03.805Z,98005.40
2023-05-05T06:42:36.133Z,98002.40
2023-05-05T06:46:09.995Z,97997.80
2023-05-05T06:49:59.030Z,97997.80
2023-05-05T06:53:49.429Z,97996.40
2023-05-05T06:57:26.617Z,97998.40
2023-05-05T07:00:47.654Z,97995.20
2023-05-05T07:04:36.713Z,97993.00
2023-05-05T07:08:21.921Z,97988.40
2023-05-05T07:11:56.391Z,97988.40
2023-05-05T07:15:38.396Z,97986.80
2023-05-05T07:19:10.148Z,97983.00
2023-05-05T07:22:25.371Z,97984.60
2023-05-05T07:25:45.492Z,97984.60
2023-05-05T07:28:57.479Z,97986.60
2023-05-05T07:32:45.744Z,97987.60
2023-05-05T07:36:33.890Z,97988.40
2023-05-05T07:39:21.275Z,97982.80
2023-05-05T07:42:50.305Z,97989.20
2023-05-05T07:46:39.683Z,97986.20
2023-05-05T07:50:07.793Z,97974.00
2023-05-05T07:53:57.115Z,97976.40
2023-05-05T07:57:46.595Z,97973.80
2023-05-05T08:01:36.659Z,97972.60
2023-05-05T08:05:26.273Z,97973.00
2023-05-05T08:08:44.918Z,97975.80
2023-05-05T08:12:34.123Z,97980.00
2023-05-05T08:16:04.766Z,97973.00
2023-05-05T08:19:36.897Z,97984.20
2023-05-05T08:22:51.770Z,97978.20
2023-05-05T08:26:26.838Z,97984.60
2023-05-05T08:29:42.648Z,97983.40
2023-05-05T08:33:31.894Z,97973.00
2023-05-05T08:36:49.347Z,97970.80
2023-05-05T08:40:09.386Z,97973.80
2023-05-05T08:43:10.071Z,97975.60
2023-05-05T08:46:14.136Z,97973.60
2023-05-05T08:48:57.287Z,97967.20
2023-05-05T08:52:26.485Z,97967.00
2023-05-05T08:56:00.158Z,97969.60
2023-05-05T08:58:49.986Z,97961.80
2023-05-05T09:02:18.861Z,97968.60
2023-05-05T09:05:48.125Z,97961.60
2023-05-05T09:09:08.490Z,97961.20
2023-05-05T09:12:20.151Z,97957.00
2023-05-05T09:15:29.269Z,97956.40
2023-05-05T09:18:05.386Z,97961.40
2023-05-05T09:20:35.930Z,97955.20
2023-05-05T09:23:19.664Z,97952.00
2023-05-05T09:26:23.547Z,97957.20
2023-05-05T09:29:32.912Z,97950.40
2023-05-05T09:32:42.003Z,97947.80
2023-05-05T09:36:29.403Z,97944.20
2023-05-05T09:39:50.740Z,97935.00
2023-05-05T09:43:04.837Z,97936.60
2023-05-05T09:45:58.864Z,97938.80
2023-05-05T09:49:45.637Z,97939.20
2023-05-05T09:53:01.718Z,97932.20
2023-05-05T09:56:37.995Z,97920.60
2023-05-05T09:59:44.533Z,97919.80
2023-05-05T10:03:11.028Z,97922.20
2023-05-05T10:06:31.209Z,97918.20
2023-05-05T10:09:33.381Z,97916.60
2023-05-05T10:13:07.826Z,97913.00
2023-05-05T10:16:29.144Z,97903.00
2023-05-05T10:19:32.518Z,97906.20
2023-05-05T10:22:23.167Z,97910.80
2023-05-05T10:25:19.293Z,97900.00
2023-05-05T10:28:40.788Z,97906.00
2023-05-05T10:31:26.016Z,97904.00
2023-05-05T10:34:10.405Z,97890.40
2023-05-05T10:37:02.199Z,97894.20
2023-05-05T10:39:50.853Z,97879.00
2023-05-05T10:43:18.840Z,97884.80
2023-05-05T10:46:37.851Z,97886.20
2023-05-05T10:49:15.041Z,97887.20
2023-05-05T10:51:50.235Z,97884.20
2023-05-05T10:54:55.284Z,97865.00
2023-05-05T10:58:07.156Z,97857.60
2023-05-05T11:00:38.296Z,97859.80
2023-05-05T11:03:42.655Z,97869.00
2023-05-05T11:07:06.141Z,97854.00
2023-05-05T11:10:23.551Z,97859.40
2023-05-05T11:13:19.648Z,97866.00
2023-05-05T11:16:00.289Z,97874.00
2023-05-05T11:19:19.013Z,97857.20
2023-05-05T11:22:23.280Z,97850.40
2023-05-05T11:25:53.588Z,97836.40
2023-05-05T11:28:37.584Z,97835.60
2023-05-05T11:31:11.424Z,97832.20
2023-05-05T11:33:58.009Z,97827.40
2023-05-05T11:36:41.254Z,97826.80
2023-05-05T11:39:37.253Z,97825.80
2023-05-05T11:42:34.443Z,97810.40
2023-05-05T11:45:19.980Z,97818.80
2023-05-05T11:47:51.057Z,97803.00
2023-05-05T11:50:23.433Z,97807.80
2023-05-05T11:53:19.587Z,97806.60
2023-05-05T11:55:47.843Z,97798.00
2023-05-05T11:58:19.944Z,97782.60
2023-05-05T12:00:51.900Z,97786.40
2023-05-05T12:03:41.558Z,97786.80
2023-05-05T12:06:46.120Z,97796.40
2023-05-05T12:09:24.047Z,97807.60
2023-05-05T12:12:12.904Z,97805.60
2023-05-05T12:14:54.275Z,97797.40
2023-05-05T12:17:56.171Z,97789.00
2023-05-05T12:20:34.575Z,97781.20
2023-05-05T12:23:23.239Z,97786.60
2023-05-05T12:27:02.265Z,97796.20
2023-05-05T12:29:32.242Z,97779.40
2023-05-05T12:32:41.430Z,97788.40
2023-05-05T12:35:13.327Z,97776.20
2023-05-05T12:38:14.480Z,97775.60
2023-05-05T12:41:23.248Z,97768.20
2023-05-05T12:44:20.067Z,97768.00
2023-05-05T12:47:45.360Z,97769.40
2023-05-05T12:50:38.195Z,97767.20
2023-05-05T12:53:36.091Z,97759.60
2023-05-05T12:56:19.660Z,97771.20
2023-05-05T12:59:13.528Z,97768.40
2023-05-05T13:02:17.150Z,97766.60
2023-05-05T13:04:54.742Z,97767.40
2023-05-05T13:07:45.696Z,97753.60
2023-05-05T13:10:57.806Z,97749.40
2023-05-05T13:13:58.821Z,97748.00
2023-05-05T13:17:20.781Z,97743.40
2023-05-05T13:20:10.885Z,97733.80
2023-05-05T13:23:20.087Z,97737.60
2023-05-05T13:26:23.068Z,97739.60
2023-05-05T13:29:14.583Z,97725.80
2023-05-05T13:32:00.199Z,97740.20
2023-05-05T13:34:42.628Z,97730.40
2023-05-05T13:37:51.496Z,97740.00
2023-05-05T13:41:08.843Z,97728.20
2023-05-05T13:43:39.691Z,97726.80
2023-05-05T13:46:34.022Z,97722.20
2023-05-05T13:49:12.809Z,97705.80
2023-05-05T13:51:47.317Z,97708.40
2023-05-05T13:54:46.935Z,97706.60
2023-05-05T13:57:26.553Z,97703.60
2023-05-05T14:00:31.856Z,97700.00
2023-05-05T14:03:29.246Z,97684.80
2023-05-05T14:06:03.004Z,97691.00
2023-05-05T14:08:36.297Z,97684.80
2023-05-05T14:11:11.138Z,97689.80
2023-05-05T14:14:03.267Z,97686.60
2023-05-05T14:16:34.720Z,97681.80
2023-05-05T14:19:15.707Z,97686.00
2023-05-05T14:22:13.347Z,97688.80
2023-05-05T14:25:21.275Z,97690.60
2023-05-05T14:27:54.030Z,97681.80
2023-05-05T14:30:46.386Z,97680.00
2023-05-05T14:33:20.360Z,97684.40
2023-05-05T14:36:09.036Z,97684.80
2023-05-05T14:38:40.618Z,97691.20
2023-05-05T14:41:49.498Z,97685.00
2023-05-05T14:44:58.662Z,97682.60
2023-05-05T14:47:38.349Z,97684.60
2023-05-05T14:50:09.967Z,97688.00
2023-05-05T14:52:58.398Z,97690.60
2023-05-05T14:56:07.383Z,97680.80
2023-05-05T14:58:35.931Z,97674.80
2023-05-05T15:01:33.545Z,97686.00
2023-05-05T15:04:21.034Z,97692.20
2023-05-05T15:07:09.757Z,97690.20
2023-05-05T15:10:09.784Z,97688.80
2023-05-05T15:13:21.421Z,97685.40
2023-05-05T15:16:05.826Z,97695.60
2023-05-05T15:18:55.802Z,97682.00
2023-05-05T15:21:53.296Z,97697.80
2023-05-05T15:25:19.586Z,97695.60
2023-05-05T15:28:12.941Z,97691.20
2023-05-05T15:31:16.557Z,97682.80
2023-05-05T15:34:34.683Z,97687.20
2023-05-05T15:37:13.812Z,97670.60
2023-05-05T15:40:28.150Z,97678.40
2023-05-05T15:43:28.652Z,97679.00
2023-05-05T15:46:24.934Z,97676.40
2023-05-05T15:49:16.278Z,97675.60
2023-05-05T15:52:00.840Z,97678.00
2023-05-05T15:55:19.829Z,97671.60
2023-05-05T15:57:53.252Z,97676.40
2023-05-05T16:01:11.060Z,97670.60
2023-05-05T16:04:06.867Z,97674.20
2023-05-05T16:06:55.593Z,97671.80
2023-05-05T16:09:35.328Z,97679.80
2023-05-05T16:12:37.447Z,97670.80
2023-05-05T16:15:33.401Z,97680.20
2023-05-05T16:18:22.796Z,97672.40
2023-05-05T16:21:34.328Z,97677.60
2023-05-05T16:24:47.281Z,97673.00
2023-05-05T16:27:29.375Z,97658.80
2023-05-05T16:30:26.400Z,97668.00
2023-05-05T16:33:24.809Z,97662.80
2023-05-05T16:36:25.123Z,97668.60
2023-05-05T16:39:13.817Z,97668.00
2023-05-05T16:42:22.703Z,97668.00
2023-05-05T16:45:25.937Z,97676.20
2023-05-05T16:48:00.657Z,97674.20
2023-05-05T16:51:11.767Z,97675.40
2023-05-05T16:54:29.060Z,97675.80
2023-05-05T16:58:08.188Z,97683.20
2023-05-05T17:01:24.938Z,97687.40
2023-05-05T17:04:45.128Z,97690.40
2023-05-05T17:07:55.724Z,97691.00
2023-05-05T17:10:56.139Z,97690.40
2023-05-05T17:14:27.347Z,97695.40
2023-05-05T17:17:45.387Z,97692.00
2023-05-05T17:20:46.675Z,97691.40
2023-05-05T17:24:02.117Z,97688.20
2023-05-05T17:27:39.928Z,97689.20
2023-05-05T17:31:25.573Z,97688.60
2023-05-05T17:34:58.055Z,97689.40
2023-05-05T17:38:29.835Z,97691.40
2023-05-05T17:42:10.824Z,97695.40
2023-05-05T17:45:38.600Z,97699.20
2023-05-05T17:49:17.679Z,97702.80
2023-05-05T17:52:45.557Z,97702.40
2023-05-05T17:56:34.651Z,97708.80
2023-05-05T17:59:57.025Z,97709.60
2023-05-05T18:03:44.902Z,97712.80
2023-05-05T18:07:32.598Z,97719.00
2023-05-05T18:11:25.017Z,97733.60
2023-05-05T18:15:14.097Z,97732.80
2023-05-05T18:18:46.784Z,97737.80
2023-05-05T18:22:28.869Z,97741.60
2023-05-05T18:26:18.134Z,97742.60
2023-05-05T18:29:50.185Z,97749.60
2023-05-05T18:33:46.896Z,97750.40
2023-05-05T18:37:42.960Z,97748.60
2023-05-05T18:41:32.222Z,97757.20
2023-05-05T18:45:21.293Z,97761.60
2023-05-05T18:49:12.702Z,97756.60
2023-05-05T18:52:27.064Z,97764.80
2023-05-05T18:56:17.738Z,97767.00
2023-05-05T19:00:05.837Z,97775.00
2023-05-05T19:03:55.109Z,97775.00
2023-05-05T19:07:38.549Z,97777.40
2023-05-05T19:11:27.672Z,97771.80
2023-05-05T19:15:26.654Z,97770.40
2023-05-05T19:19:00.202Z,97775.40
2023-05-05T19:22:14.286Z,97776.60
2023-05-05T19:26:06.396Z,97769.60
2023-05-05T19:29:31.588Z,97774.80
2023-05-05T19:33:13.605Z,97774.20
2023-05-05T19:36:55.661Z,97770.00
2023-05-05T19:40:44.693Z,97769.80
2023-05-05T19:44:18.693Z,97773.80
2023-05-05T19:47:52.126Z,97774.60
2023-05-05T19:51:37.822Z,97774.40
2023-05-05T19:55:28.567Z,97776.40
2023-05-05T19:59:04.732Z,97779.60
2023-05-05T20:02:51.771Z,97782.20
2023-05-05T20:05:29.430Z,97780.20
2023-05-05T20:14:00.537Z,97774.80
2023-05-05T20:17:26.332Z,97773.40
2023-05-05T20:21:22.012Z,97773.60
2023-05-05T20:25:13.207Z,97773.60
2023-05-05T20:29:16.232Z,97770.20
2023-05-05T20:32:56.102Z,97762.20
2023-05-05T20:41:16.250Z,97769.20
2023-05-05T20:45:08.188Z,97768.60
2023-05-05T20:48:43.031Z,97768.40
2023-05-05T20:51:54.957Z,97771.40
2023-05-05T20:55:34.875Z,97769.40
2023-05-05T20:59:09.525Z,97770.40
2023-05-05T21:03:10.179Z,97768.20
2023-05-05T21:06:59.429Z,97762.80
2023-05-05T21:10:50.003Z,97768.20
2023-05-05T21:14:39.087Z,97775.60
2023-05-05T21:18:28.224Z,97765.60
2023-05-05T21:22:03.202Z,97767.20
2023-05-05T21:25:52.313Z,97768.40
2023-05-05T21:29:41.156Z,97767.20
2023-05-05T21:33:30.278Z,97769.60
2023-05-05T21:37:02.268Z,97774.00
2023-05-05T21:40:50.490Z,97772.80
2023-05-05T21:44:01.170Z,97772.00
2023-05-05T21:47:51.207Z,97771.80
2023-05-05T21:51:40.293Z,97763.40
2023-05-05T21:55:29.648Z,97769.80
2023-05-05T21:59:18.887Z,97760.40
2023-05-05T22:02:58.332Z,97758.00
2023-05-05T22:06:47.460Z,97769.60
2023-05-05T22:10:36.764Z,97764.40
2023-05-05T22:14:24.691Z,97762.60
2023-05-05T22:18:13.729Z,97755.80
2023-05-05T22:22:02.982Z,97758.20
2023-05-05T22:25:52.078Z,97759.40
2023-05-05T22:29:41.222Z,97756.20
2023-05-05T22:33:30.360Z,97752.20
2023-05-05T22:37:20.579Z,97750.40
2023-05-05T22:41:09.968Z,97745.40
2023-05-05T22:44:49.074Z,97748.80
2023-05-05T22:48:31.778Z,97744.60
2023-05-05T22:52:20.916Z,97747.60
2023-05-05T22:56:10.117Z,97745.00
2023-05-05T22:59:59.303Z,97741.60
2023-05-05T23:03:48.691Z,97739.60
2023-05-05T23:07:36.823Z,97738.60
2023-05-05T23:11:17.136Z,97740.20
2023-05-05T23:14:45.997Z,97737.60
2023-05-05T23:18:35.182Z,97737.80
2023-05-05T23:22:24.229Z,97736.60
2023-05-05T23:26:13.418Z,97733.80
2023-05-05T23:30:02.594Z,97730.60
2023-05-05T23:33:52.840Z,97727.00
2023-05-05T23:37:43.079Z,97730.80
2023-05-05T23:41:32.115Z,97725.00
2023-05-05T23:45:11.471Z,97726.60
2023-05-05T23:49:00.116Z,97725.80
2023-05-05T23:52:49.090Z,97718.00
2023-05-05T23:56:38.166Z,97722.80
